Terminal Aerodrome Forecast
Issued by NWS

Home | Current Version | Previous Version | Text Only | Print | Product List | Glossary On
Versions: 1 2 3 4 5 6 7 8 9 10 11 12 13 14 15 16 17
000
FTUS46 KOTX 252338
TAFCOE
TAF
KCOE 252338Z 2600/2624 20010KT P6SM VCSH SCT050 BKN070 BKN200
     FM260100 19008KT P6SM SCT040 BKN120 OVC200
     FM260900 18005KT P6SM -RA BKN025 OVC040
     FM261400 21008KT P6SM VCSH BKN015 OVC025
     FM261800 22010G16KT P6SM -SHRA BKN030 BKN060=

USA.gov is the U.S. government's official web portal to all federal, state and local government web resources and services.